Startpagina
METAR-TAF:

METAR-TAF

Vliegvelden :

Victoria, Mahé, Seychellen

Luchthaven Seychellen

breedte: 04-40S, lengte: 055-31E, hoogte: 3 m

Actueel weer

Dit bericht is 37 minuten geleden gemaakt, om 19:00 UTC
Wind 3 kt uit het zuiden
Temperatuur 28°C
Vochtigheid 84%
Druk 1012 hPa
Zicht 10 km of meer
Weinig wolken op 1600 ft

METAR: FSIA 231900Z 17003KT 9999 FEW016 28/25 Q1012 NOSIG

Tijdstip: 23:37 (19:37 UTC)

Verwachting

Dit bericht is 2 uur en het 28 minuten geleden gemaakt, om 17:09 UTC
Verwachting geldig van 23 om 18 UTC tot 24 om 18 UTC
Wind 4 kt uit het zuidzuidwesten
Zicht 10 km of meer
Verspreide wolken op 1900 ft
Kans 30% :
Tijdelijke
van 23 om 21 UTC tot 24 om 03 UTC
Weinig wolken op 1400 ft, Cumulonimbus.
Gebroken wolken op 1600 ft
lichte regenbuien

TAF: FSIA 231709Z 2318/2418 20004KT 9999 SCT019 PROB30 TEMPO 2321/2403 -SHRA FEW014CB BKN016

Waarnemingen en weersverwachtingen van meer dan 4000 vliegvelden (METAR en TAF).

De beschikbare stations zijn de gele en rode punten op de kaart.

Ga met uw muis naar het station om de naam te zien.

Klik dan om waarnemingen en weersverwachtingen te zien.

kaart wijzigen: klik op de groene knoppen met een zwart kruis om in te zoomen, op de groene knop met een streepje om uit te zoomen of op de groene pijlen voor aangrenzende kaarten.


METAR-TAF: